Time;durP1;ratioP1;P1;durP2;ratioP2;P2;SDS_P1;SDS_P2;PMS_P1;PMS_P2;Temp;Humidity;BMP_temperature;BMP_pressure;BME280_temperature;BME280_humidity;BME280_pressure;Samples;Min_cycle;Max_cycle;Signal;HPM_P1;HPM_P2
2024/01/05 00:00:35;;;;;;;2.20;2.00;;;;;;;20.15;56.13;96610.81;5001998;28;20297;-25
2024/01/05 00:03:02;;;;;;;1.70;1.60;;;;;;;20.15;56.25;96603.16;5000668;28;20230;-25
2024/01/05 00:05:29;;;;;;;2.17;1.90;;;;;;;20.14;56.04;96590.38;4999809;28;20195;-25
2024/01/05 00:07:55;;;;;;;1.90;1.80;;;;;;;20.15;56.24;96594.66;4997861;28;20217;-25
2024/01/05 00:10:22;;;;;;;2.80;2.00;;;;;;;20.15;56.02;96580.22;5003336;28;20226;-25
2024/01/05 00:12:48;;;;;;;2.67;1.80;;;;;;;20.15;56.07;96589.53;5002584;28;20229;-26
2024/01/05 00:15:15;;;;;;;2.07;1.83;;;;;;;20.16;56.05;96591.28;5000400;28;20625;-25
2024/01/05 00:17:42;;;;;;;3.20;1.90;;;;;;;20.15;56.17;96600.63;4999502;28;20290;-25
2024/01/05 00:20:09;;;;;;;1.83;1.70;;;;;;;20.15;56.21;96605.72;5000357;28;20195;-26
2024/01/05 00:22:36;;;;;;;2.80;1.83;;;;;;;20.15;55.83;96598.06;5004879;28;20657;-25
2024/01/05 00:25:03;;;;;;;2.00;1.80;;;;;;;20.16;56.12;96594.66;4998892;28;20701;-26
2024/01/05 00:27:30;;;;;;;1.80;1.70;;;;;;;20.16;56.13;96591.28;4999491;28;20262;-25
2024/01/05 00:29:57;;;;;;;2.23;1.97;;;;;;;20.15;56.05;96582.75;4999753;28;20268;-25
2024/01/05 00:32:23;;;;;;;2.00;1.80;;;;;;;20.16;56.00;96583.63;5000125;28;20229;-26
2024/01/05 00:34:50;;;;;;;2.00;1.80;;;;;;;20.15;55.93;96577.66;5004906;28;20226;-26
2024/01/05 00:37:17;;;;;;;1.90;1.80;;;;;;;20.16;56.10;96574.28;5002434;28;20195;-28
2024/01/05 00:39:44;;;;;;;2.93;1.70;;;;;;;20.16;55.92;96569.16;5003663;28;20203;-27
2024/01/05 00:42:11;;;;;;;2.20;1.80;;;;;;;20.15;56.07;96564.03;5000417;28;20218;-27
2024/01/05 00:44:40;;;;;;;2.37;1.87;;;;;;;20.16;56.07;96560.69;5003318;28;20199;-26
2024/01/05 00:47:07;;;;;;;2.63;1.80;;;;;;;20.15;56.08;96562.34;5006266;28;20203;-29
2024/01/05 00:49:33;;;;;;;1.70;1.60;;;;;;;20.17;56.07;96570.03;5005309;28;20230;-26
2024/01/05 00:52:00;;;;;;;1.70;1.60;;;;;;;20.16;56.52;96564.06;4999685;28;20753;-26
2024/01/05 00:54:27;;;;;;;2.30;1.90;;;;;;;20.17;55.88;96567.47;5002126;28;20203;-29
2024/01/05 00:56:53;;;;;;;1.90;1.70;;;;;;;20.17;55.85;96562.38;5002127;28;20615;-29
2024/01/05 00:59:20;;;;;;;2.63;1.90;;;;;;;20.17;56.00;96559.84;5003020;28;20574;-29
2024/01/05 01:01:47;;;;;;;2.43;2.00;;;;;;;20.15;55.88;96549.59;5002767;28;20313;-26
2024/01/05 01:04:14;;;;;;;2.80;1.93;;;;;;;20.18;56.01;96547.09;5005796;28;20669;-31
2024/01/05 01:06:41;;;;;;;1.70;1.60;;;;;;;20.17;55.91;96553.06;5001978;28;20213;-26
2024/01/05 01:09:08;;;;;;;2.03;1.80;;;;;;;20.18;55.76;96561.53;5001073;28;20223;-30
2024/01/05 01:11:35;;;;;;;7.67;1.80;;;;;;;20.17;56.12;96553.06;5010655;28;20225;-29
2024/01/05 01:14:02;;;;;;;2.20;2.00;;;;;;;20.18;55.95;96552.22;4998790;28;20213;-26
2024/01/05 01:16:28;;;;;;;2.27;1.90;;;;;;;20.18;55.79;96542.00;5003128;28;20206;-28
2024/01/05 01:18:55;;;;;;;1.70;1.60;;;;;;;20.18;55.95;96549.66;5004776;28;20258;-27
2024/01/05 01:21:22;;;;;;;2.30;1.70;;;;;;;20.18;55.72;96533.47;5010651;28;20222;-26
2024/01/05 01:23:48;;;;;;;1.60;1.50;;;;;;;20.17;55.73;96535.19;4997531;28;20223;-29
2024/01/05 01:26:16;;;;;;;2.10;1.90;;;;;;;20.18;56.20;96543.69;5013251;28;20611;-28
2024/01/05 01:28:42;;;;;;;2.17;1.93;;;;;;;20.18;56.02;96531.81;5002872;28;20269;-26
2024/01/05 01:31:09;;;;;;;1.90;1.70;;;;;;;20.16;55.66;96522.41;4995239;28;20591;-28
2024/01/05 01:33:36;;;;;;;2.23;1.77;;;;;;;20.18;55.99;96526.69;5010088;28;20226;-31
2024/01/05 01:36:04;;;;;;;1.80;1.70;;;;;;;20.19;55.84;96525.03;5005104;28;20207;-28
2024/01/05 01:38:30;;;;;;;1.83;1.73;;;;;;;20.17;55.67;96513.91;5004277;28;20195;-27
2024/01/05 01:40:57;;;;;;;1.73;1.63;;;;;;;20.18;55.66;96513.06;4999433;28;20265;-31
2024/01/05 01:43:27;;;;;;;1.87;1.67;;;;;;;20.19;55.65;96499.50;5001803;28;20203;-29
2024/01/05 01:46:00;;;;;;;2.13;1.93;;;;;;;20.19;55.83;96499.50;4999148;28;20245;-26
2024/01/05 01:48:26;;;;;;;1.77;1.67;;;;;;;20.19;55.82;96502.06;5006726;28;20329;-26
2024/01/05 01:50:54;;;;;;;2.20;2.00;;;;;;;20.20;55.87;96502.09;5003760;28;20273;-29
2024/01/05 01:53:20;;;;;;;1.90;1.73;;;;;;;20.21;56.21;96495.28;5004853;28;20697;-35
2024/01/05 01:55:47;;;;;;;1.80;1.70;;;;;;;20.20;55.82;96499.53;5000366;28;20285;-26
2024/01/05 01:58:15;;;;;;;1.87;1.77;;;;;;;20.20;55.71;96498.66;4999167;28;20203;-26
2024/01/05 02:00:42;;;;;;;1.93;1.70;;;;;;;20.22;55.61;96502.94;4995920;28;20269;-36
2024/01/05 02:03:09;;;;;;;1.80;1.70;;;;;;;20.21;55.65;96491.03;5001666;28;20700;-26
2024/01/05 02:05:36;;;;;;;2.30;1.70;;;;;;;20.22;55.80;96485.09;4991595;28;20202;-29
2024/01/05 02:08:03;;;;;;;2.17;1.97;;;;;;;20.21;55.71;96473.19;4993345;28;20222;-26
2024/01/05 02:10:30;;;;;;;2.10;1.90;;;;;;;20.22;55.77;96480.00;4993879;28;20238;-26
2024/01/05 02:12:57;;;;;;;2.77;2.00;;;;;;;20.23;55.59;96468.13;5002232;28;20258;-27
2024/01/05 02:15:23;;;;;;;1.80;1.70;;;;;;;20.20;55.57;96460.41;5005689;28;20579;-27
2024/01/05 02:17:50;;;;;;;1.67;1.57;;;;;;;20.21;55.55;96465.53;5008067;28;20658;-27
2024/01/05 02:20:17;;;;;;;2.07;1.87;;;;;;;20.21;55.90;96457.88;4999553;28;20257;-27
2024/01/05 02:22:47;;;;;;;2.00;1.80;;;;;;;20.19;55.95;96445.94;4998008;28;20273;-27
2024/01/05 02:25:13;;;;;;;1.93;1.73;;;;;;;20.19;55.79;96444.22;4994526;28;20246;-27
2024/01/05 02:27:40;;;;;;;1.80;1.70;;;;;;;20.18;55.95;96439.09;5004826;28;20245;-27
2024/01/05 02:30:07;;;;;;;2.23;1.90;;;;;;;20.17;55.79;96430.63;5009054;28;20206;-29
2024/01/05 02:32:34;;;;;;;2.17;1.80;;;;;;;20.16;55.94;96433.97;4995976;28;20230;-26
2024/01/05 02:35:00;;;;;;;2.10;1.90;;;;;;;20.14;55.89;96428.00;5007346;28;20209;-26
2024/01/05 02:37:29;;;;;;;2.27;1.90;;;;;;;20.16;55.93;96428.03;4993332;28;20207;-29
2024/01/05 02:39:55;;;;;;;1.80;1.70;;;;;;;20.16;55.71;96433.97;5000931;28;20661;-27
2024/01/05 02:42:22;;;;;;;2.23;1.90;;;;;;;20.14;55.84;96430.56;5007268;28;20222;-27
2024/01/05 02:44:49;;;;;;;1.77;1.67;;;;;;;20.15;55.96;96434.81;5011757;28;20210;-26
2024/01/05 02:47:15;;;;;;;2.47;1.70;;;;;;;20.15;55.89;96429.72;5005827;28;20202;-27
2024/01/05 02:49:42;;;;;;;2.30;2.00;;;;;;;20.16;56.02;96430.59;4997059;28;20762;-29
2024/01/05 02:52:09;;;;;;;2.00;1.80;;;;;;;20.15;56.03;96424.63;5002135;28;20230;-26
2024/01/05 02:54:37;;;;;;;1.93;1.73;;;;;;;20.16;55.82;96430.59;4999901;28;20294;-30
2024/01/05 02:57:04;;;;;;;2.10;1.90;;;;;;;20.15;55.88;96427.16;5005560;28;20269;-32
2024/01/05 02:59:31;;;;;;;2.17;1.90;;;;;;;20.15;55.84;96422.06;4996762;28;20772;-26
2024/01/05 03:01:57;;;;;;;1.70;1.60;;;;;;;20.17;55.76;96414.44;5007176;28;20226;-26
2024/01/05 03:04:24;;;;;;;1.73;1.63;;;;;;;20.16;55.78;96412.72;4998021;28;20252;-27
2024/01/05 03:06:50;;;;;;;2.00;1.80;;;;;;;20.16;55.87;96405.91;5004575;28;20674;-31
2024/01/05 03:09:17;;;;;;;2.20;2.00;;;;;;;20.16;56.26;96411.03;5002932;28;20240;-28
2024/01/05 03:11:43;;;;;;;2.13;1.90;;;;;;;20.16;55.99;96416.13;5003484;28;20217;-27
2024/01/05 03:14:10;;;;;;;1.80;1.70;;;;;;;20.16;56.03;96422.94;4998929;28;20563;-27
2024/01/05 03:16:37;;;;;;;2.10;1.90;;;;;;;20.16;56.01;96423.78;4994912;28;20200;-26
2024/01/05 03:19:03;;;;;;;2.20;1.90;;;;;;;20.16;56.01;96411.03;5000136;28;20287;-28
2024/01/05 03:21:30;;;;;;;1.80;1.70;;;;;;;20.16;55.77;96408.47;5002568;28;20222;-27
2024/01/05 03:23:57;;;;;;;1.70;1.60;;;;;;;20.18;55.83;96413.59;4999475;28;20207;-26
2024/01/05 03:26:23;;;;;;;1.60;1.50;;;;;;;20.17;55.95;96407.66;4997118;28;20619;-30
2024/01/05 03:28:50;;;;;;;1.60;1.50;;;;;;;20.18;55.82;96406.81;5011120;28;20292;-28
2024/01/05 03:31:16;;;;;;;1.70;1.60;;;;;;;20.17;55.93;96391.47;4999525;28;20227;-42
2024/01/05 03:33:44;;;;;;;1.60;1.50;;;;;;;20.18;55.76;96382.97;5009453;28;20213;-26
2024/01/05 03:36:11;;;;;;;2.20;1.83;;;;;;;20.18;55.74;96382.97;5002585;28;20206;-26
2024/01/05 03:38:38;;;;;;;2.10;1.90;;;;;;;20.18;55.74;96376.19;5003739;28;20206;-26
2024/01/05 03:41:05;;;;;;;2.17;1.97;;;;;;;20.18;55.91;96367.69;4997838;28;20242;-26
2024/01/05 03:43:31;;;;;;;1.63;1.53;;;;;;;20.18;55.73;96360.03;5002361;28;20199;-26
2024/01/05 03:45:58;;;;;;;1.90;1.70;;;;;;;20.18;55.67;96357.47;4998101;28;20242;-28
2024/01/05 03:48:24;;;;;;;1.70;1.60;;;;;;;20.17;55.98;96346.44;5007759;28;20297;-30
2024/01/05 03:50:51;;;;;;;3.37;1.80;;;;;;;20.18;55.80;96334.53;5008443;28;20678;-26
2024/01/05 03:53:18;;;;;;;1.47;1.37;;;;;;;20.18;55.69;96325.19;5011363;28;20238;-31
2024/01/05 03:55:44;;;;;;;2.37;1.87;;;;;;;20.18;55.73;96317.53;5002069;28;20230;-28
2024/01/05 03:58:11;;;;;;;2.50;1.90;;;;;;;20.19;55.68;96316.69;5003956;28;20285;-26
2024/01/05 04:00:38;;;;;;;2.27;2.00;;;;;;;20.19;55.72;96320.94;5003321;28;20207;-28
2024/01/05 04:03:04;;;;;;;2.10;1.70;;;;;;;20.19;55.74;96315.84;5013435;28;20218;-26
2024/01/05 04:05:32;;;;;;;2.07;1.87;;;;;;;20.18;55.67;96312.44;5002460;28;20293;-30
2024/01/05 04:07:58;;;;;;;1.93;1.70;;;;;;;20.19;55.81;96315.84;5012840;28;20252;-26
2024/01/05 04:10:25;;;;;;;1.90;1.70;;;;;;;20.19;55.71;96308.19;5009778;28;20203;-26
2024/01/05 04:12:51;;;;;;;2.43;1.80;;;;;;;20.19;55.59;96295.44;5013003;28;20221;-28
2024/01/05 04:15:18;;;;;;;1.77;1.50;;;;;;;20.18;55.89;96293.72;5008490;28;20241;-26
2024/01/05 04:17:45;;;;;;;1.83;1.70;;;;;;;20.19;55.64;96292.91;5008753;28;20590;-26
2024/01/05 04:20:11;;;;;;;1.70;1.60;;;;;;;20.18;55.58;96294.56;5007663;28;20202;-26
2024/01/05 04:22:38;;;;;;;1.60;1.50;;;;;;;20.19;55.84;96298.84;5011655;28;20265;-26
2024/01/05 04:25:05;;;;;;;1.60;1.50;;;;;;;20.18;55.88;96294.56;5010644;28;20622;-29
2024/01/05 04:27:31;;;;;;;1.67;1.57;;;;;;;20.18;55.80;96298.81;5000944;28;20195;-26
2024/01/05 04:29:58;;;;;;;2.00;1.80;;;;;;;20.18;55.50;96304.78;5006445;28;20230;-34
2024/01/05 04:32:25;;;;;;;2.57;1.90;;;;;;;20.19;55.40;96303.09;5004918;28;20598;-26
2024/01/05 04:34:51;;;;;;;2.10;1.90;;;;;;;20.19;55.80;96303.09;5007575;28;20776;-26
2024/01/05 04:37:18;;;;;;;1.80;1.70;;;;;;;20.18;55.97;96307.34;5012230;28;20198;-26
2024/01/05 04:39:45;;;;;;;1.73;1.63;;;;;;;20.18;55.73;96312.44;5005043;28;20269;-31
2024/01/05 04:42:12;;;;;;;1.67;1.57;;;;;;;20.18;55.65;96314.97;5006641;28;20227;-26
2024/01/05 04:44:38;;;;;;;1.60;1.50;;;;;;;20.18;55.73;96321.75;5007403;28;20509;-27
2024/01/05 04:47:05;;;;;;;1.57;1.47;;;;;;;20.19;55.74;96329.44;4998756;28;20257;-27
2024/01/05 04:49:33;;;;;;;2.33;1.70;;;;;;;20.18;55.83;96325.19;5010282;28;20261;-26
2024/01/05 04:52:00;;;;;;;1.87;1.77;;;;;;;20.19;55.83;96313.31;5006826;28;20218;-26
2024/01/05 04:54:27;;;;;;;2.00;1.77;;;;;;;20.19;55.55;96310.75;5005957;28;20198;-26
2024/01/05 04:56:53;;;;;;;1.60;1.50;;;;;;;20.20;55.76;96307.34;5006204;28;20203;-27
2024/01/05 04:59:22;;;;;;;1.77;1.67;;;;;;;20.20;55.47;96300.56;5008174;28;20302;-26
2024/01/05 05:01:49;;;;;;;1.40;1.30;;;;;;;20.20;55.62;96297.16;5005072;28;20587;-26
2024/01/05 05:04:17;;;;;;;1.80;1.70;;;;;;;20.20;55.52;96289.50;5010506;28;20236;-29
2024/01/05 05:06:44;;;;;;;1.83;1.60;;;;;;;20.19;55.63;96278.44;5006816;28;20241;-26
2024/01/05 05:09:11;;;;;;;1.70;1.60;;;;;;;20.18;55.68;96271.63;5007537;28;20694;-27
2024/01/05 05:11:38;;;;;;;1.60;1.50;;;;;;;20.20;55.65;96279.28;5006218;28;20253;-29
2024/01/05 05:14:05;;;;;;;2.07;1.83;;;;;;;20.19;55.63;96280.97;5001658;28;20218;-26
2024/01/05 05:16:32;;;;;;;1.70;1.60;;;;;;;20.20;55.53;96284.41;5002548;28;20198;-26
2024/01/05 05:18:58;;;;;;;2.07;1.60;;;;;;;20.19;55.71;96285.25;5003681;28;20230;-27
2024/01/05 05:21:25;;;;;;;1.47;1.37;;;;;;;20.19;55.40;96286.06;5008797;28;20214;-26
2024/01/05 05:23:52;;;;;;;2.03;1.83;;;;;;;20.20;55.71;96280.16;5000892;28;20202;-26
2024/01/05 05:26:19;;;;;;;1.63;1.53;;;;;;;20.20;55.55;96290.38;5005847;28;20199;-27
2024/01/05 05:28:45;;;;;;;1.67;1.57;;;;;;;20.20;55.54;96289.50;4996889;28;20615;-28
2024/01/05 05:31:12;;;;;;;1.60;1.50;;;;;;;20.19;55.61;96298.84;5006519;28;20269;-26
2024/01/05 05:33:39;;;;;;;1.60;1.50;;;;;;;20.19;55.51;96296.28;4995643;28;20195;-30
2024/01/05 05:36:05;;;;;;;1.60;1.50;;;;;;;20.19;55.45;96298.84;5003290;28;20205;-26
2024/01/05 05:38:32;;;;;;;1.70;1.60;;;;;;;20.20;55.44;96297.16;5011437;28;20195;-26
2024/01/05 05:40:59;;;;;;;1.80;1.70;;;;;;;20.20;55.46;96299.69;5003883;28;20212;-26
2024/01/05 05:43:25;;;;;;;1.70;1.60;;;;;;;20.20;55.75;96304.81;5002932;28;20635;-31
2024/01/05 05:45:52;;;;;;;1.93;1.60;;;;;;;20.19;55.67;96303.94;4999762;28;20700;-28
2024/01/05 05:48:18;;;;;;;1.60;1.50;;;;;;;20.20;55.53;96299.69;5003256;28;20202;-28
2024/01/05 05:50:45;;;;;;;1.60;1.50;;;;;;;20.20;55.39;96290.38;4997100;28;20199;-27
2024/01/05 05:53:12;;;;;;;1.80;1.70;;;;;;;20.14;55.47;96276.66;5004611;28;20245;-29
2024/01/05 05:55:39;;;;;;;3.60;1.50;;;;;;;20.20;55.22;96282.72;5006686;28;20249;-27
2024/01/05 05:58:08;;;;;;;1.97;1.60;;;;;;;20.20;55.69;96287.81;5005505;28;20199;-26
2024/01/05 06:00:37;;;;;;;1.50;1.40;;;;;;;20.20;55.57;96287.81;5000349;28;20194;-33
2024/01/05 06:03:06;;;;;;;1.47;1.37;;;;;;;20.20;55.31;96292.91;4992988;28;20412;-27
2024/01/05 06:05:34;;;;;;;1.60;1.50;;;;;;;20.18;55.24;96291.16;5004703;28;20260;-26
2024/01/05 06:08:01;;;;;;;1.60;1.50;;;;;;;20.20;55.46;96290.38;5008443;28;20202;-28
2024/01/05 06:10:28;;;;;;;1.60;1.50;;;;;;;20.20;55.53;96287.81;4996791;28;20215;-26
2024/01/05 06:12:54;;;;;;;1.63;1.53;;;;;;;20.22;55.29;96287.84;4994742;28;20223;-28
2024/01/05 06:15:21;;;;;;;2.23;1.60;;;;;;;20.22;55.37;96291.22;4996107;28;20736;-30
2024/01/05 06:17:48;;;;;;;1.60;1.50;;;;;;;20.23;55.34;96297.19;5001129;28;20199;-29
2024/01/05 06:20:14;;;;;;;1.57;1.43;;;;;;;20.23;55.38;96292.09;5000151;28;20553;-26
2024/01/05 06:22:41;;;;;;;1.40;1.30;;;;;;;20.23;55.41;96292.09;5006153;28;20256;-30
2024/01/05 06:25:08;;;;;;;2.00;1.60;;;;;;;20.24;55.25;96296.34;4998941;28;20257;-26
2024/01/05 06:27:34;;;;;;;1.70;1.60;;;;;;;20.25;55.25;96298.94;5000299;28;20203;-26
2024/01/05 06:30:06;;;;;;;1.73;1.63;;;;;;;20.26;55.16;96304.91;4994785;28;20226;-26
2024/01/05 06:32:32;;;;;;;1.70;1.60;;;;;;;20.25;55.14;96305.75;4999927;28;20237;-28
2024/01/05 06:34:59;;;;;;;1.60;1.50;;;;;;;20.26;55.25;96310.88;4995183;28;20285;-28
2024/01/05 06:37:26;;;;;;;1.60;1.50;;;;;;;20.27;55.30;96316.81;4998255;28;20234;-34
2024/01/05 06:39:52;;;;;;;2.47;1.80;;;;;;;20.27;55.16;96315.13;5000895;28;20201;-26
2024/01/05 06:42:19;;;;;;;1.50;1.40;;;;;;;20.27;55.26;96321.91;5008619;28;20226;-26
2024/01/05 06:44:46;;;;;;;1.60;1.50;;;;;;;20.28;55.04;96327.03;5010483;28;20238;-26
2024/01/05 06:47:13;;;;;;;1.60;1.50;;;;;;;20.28;55.00;96314.28;4999810;28;20230;-28
2024/01/05 06:49:39;;;;;;;1.93;1.70;;;;;;;20.28;54.95;96314.28;5004457;28;20250;-26
2024/01/05 06:52:06;;;;;;;1.60;1.50;;;;;;;20.28;54.93;96318.53;5001648;28;20739;-28
2024/01/05 06:54:34;;;;;;;1.40;1.30;;;;;;;20.28;55.14;96324.47;5003454;28;20575;-32
2024/01/05 06:57:00;;;;;;;1.60;1.50;;;;;;;20.25;54.91;96328.69;5002914;28;20580;-29
2024/01/05 06:59:30;;;;;;;1.50;1.40;;;;;;;20.30;55.12;96342.38;5005674;28;20286;-26
2024/01/05 07:01:57;;;;;;;1.53;1.43;;;;;;;20.31;55.03;96350.03;5008333;28;20221;-29
2024/01/05 07:04:23;;;;;;;1.50;1.40;;;;;;;20.30;54.97;96353.44;5006597;28;20260;-28
2024/01/05 07:06:50;;;;;;;1.60;1.50;;;;;;;20.30;54.94;96355.13;5008041;28;20230;-26
2024/01/05 07:09:16;;;;;;;1.80;1.70;;;;;;;20.31;54.88;96354.31;5007519;28;20218;-27
2024/01/05 07:11:43;;;;;;;1.70;1.60;;;;;;;20.33;54.86;96367.94;4997774;28;20223;-28
2024/01/05 07:14:10;;;;;;;1.57;1.47;;;;;;;20.33;55.01;96360.28;5005744;28;20202;-26
2024/01/05 07:16:37;;;;;;;1.50;1.40;;;;;;;20.33;54.93;96362.81;5000782;28;20230;-26
2024/01/05 07:19:03;;;;;;;1.70;1.60;;;;;;;20.33;54.73;96365.38;5007910;28;20655;-30
2024/01/05 07:21:30;;;;;;;1.73;1.63;;;;;;;20.33;54.96;96357.72;5002283;28;20214;-27
2024/01/05 07:23:57;;;;;;;1.50;1.40;;;;;;;20.33;54.65;96358.59;5010358;28;20265;-26
2024/01/05 07:26:23;;;;;;;1.90;1.80;;;;;;;20.33;54.89;96358.59;4995988;28;20572;-28
2024/01/05 07:28:50;;;;;;;1.80;1.50;;;;;;;20.33;54.65;96353.47;5007603;28;20226;-26
2024/01/05 07:31:23;;;;;;;1.63;1.40;;;;;;;20.33;54.74;96358.59;5004441;28;20235;-26
2024/01/05 07:33:50;;;;;;;2.03;1.70;;;;;;;20.33;54.83;96350.06;5000277;28;20740;-26
2024/01/05 07:36:16;;;;;;;1.70;1.60;;;;;;;20.34;55.17;96349.25;5007216;28;20281;-26
2024/01/05 07:38:43;;;;;;;1.50;1.40;;;;;;;20.34;54.69;96339.03;5003465;28;20249;-27
2024/01/05 07:41:15;;;;;;;1.70;1.60;;;;;;;20.34;54.75;96329.69;5005652;28;20225;-26
2024/01/05 07:43:41;;;;;;;1.87;1.77;;;;;;;20.32;54.75;96317.75;5004825;28;20194;-26
2024/01/05 07:46:08;;;;;;;1.37;1.27;;;;;;;20.30;54.87;96315.16;5006434;28;20199;-26
2024/01/05 07:48:38;;;;;;;1.53;1.40;;;;;;;20.29;54.68;96308.38;5013623;28;20206;-27
2024/01/05 07:51:05;;;;;;;1.60;1.50;;;;;;;20.28;54.72;96314.28;5012544;28;20226;-27
2024/01/05 07:53:31;;;;;;;1.70;1.60;;;;;;;20.27;54.43;96317.69;5004053;28;20257;-26
2024/01/05 07:56:04;;;;;;;1.70;1.60;;;;;;;20.26;54.55;96308.31;5000383;28;20206;-26
2024/01/05 07:58:31;;;;;;;1.80;1.70;;;;;;;20.26;54.69;96315.09;5010064;28;20199;-30
2024/01/05 08:00:58;;;;;;;1.60;1.50;;;;;;;20.25;54.79;96321.88;5006744;28;20723;-26
2024/01/05 08:03:24;;;;;;;1.87;1.70;;;;;;;20.24;53.59;96332.94;5010132;28;20587;-27
2024/01/05 08:05:51;;;;;;;1.57;1.47;;;;;;;20.27;54.47;96337.22;5006200;28;20665;-27
2024/01/05 08:08:18;;;;;;;1.70;1.60;;;;;;;20.28;54.11;96328.75;5001942;28;20210;-27
2024/01/05 08:10:45;;;;;;;1.57;1.47;;;;;;;20.29;54.26;96322.81;5003475;28;20309;-26
2024/01/05 08:13:12;;;;;;;1.70;1.60;;;;;;;20.31;54.14;96316.03;5002743;28;20250;-30
2024/01/05 08:15:38;;;;;;;1.60;1.50;;;;;;;20.31;54.18;96303.28;5008673;28;20203;-26
2024/01/05 08:18:05;;;;;;;1.87;1.70;;;;;;;20.32;54.17;96312.63;5002472;28;20214;-26
2024/01/05 08:20:32;;;;;;;1.80;1.70;;;;;;;20.31;54.06;96319.44;5005863;28;20195;-26
2024/01/05 08:23:00;;;;;;;1.70;1.60;;;;;;;20.31;54.20;96316.03;5007701;28;20226;-26
2024/01/05 08:25:27;;;;;;;3.07;1.70;;;;;;;20.31;54.23;96321.13;5010577;28;20272;-26
2024/01/05 08:27:53;;;;;;;1.80;1.70;;;;;;;20.30;54.21;96320.28;5003574;28;20203;-26
2024/01/05 08:30:21;;;;;;;1.87;1.67;;;;;;;20.31;54.09;96316.03;5009149;28;20211;-29
2024/01/05 08:32:51;;;;;;;1.87;1.60;;;;;;;20.30;54.03;96309.19;5007895;28;20257;-26
2024/01/05 08:35:18;;;;;;;2.23;1.80;;;;;;;20.30;54.16;96317.72;5003964;28;20202;-27
2024/01/05 08:37:45;;;;;;;1.73;1.63;;;;;;;20.28;53.99;96318.53;5008679;28;20252;-29
2024/01/05 08:40:12;;;;;;;1.60;1.50;;;;;;;20.26;53.95;96318.53;5004194;28;20229;-26
2024/01/05 08:42:39;;;;;;;3.73;1.83;;;;;;;20.25;53.08;96323.59;5006448;28;20272;-26
2024/01/05 08:45:06;;;;;;;3.50;2.67;;;;;;;20.22;48.13;96326.09;5010016;28;20202;-26
2024/01/05 08:47:33;;;;;;;5.80;3.10;;;;;;;20.17;45.74;96331.13;4990878;28;20285;-28
2024/01/05 08:50:00;;;;;;;6.90;2.90;;;;;;;20.16;45.97;96336.22;5004888;28;20219;-27
2024/01/05 08:52:27;;;;;;;5.20;2.83;;;;;;;20.16;47.22;96337.03;5000286;28;20219;-26
2024/01/05 08:54:53;;;;;;;4.10;2.90;;;;;;;20.16;48.27;96338.75;5001273;28;20191;-29
2024/01/05 08:57:21;;;;;;;3.77;2.50;;;;;;;20.15;49.06;96340.44;4998323;28;20198;-26
2024/01/05 08:59:47;;;;;;;3.53;2.70;;;;;;;20.11;50.16;96335.25;5000010;28;20577;-33
2024/01/05 09:02:14;;;;;;;2.80;2.50;;;;;;;20.13;50.54;96334.44;5005161;28;20763;-28
2024/01/05 09:04:41;;;;;;;3.90;2.90;;;;;;;20.11;51.62;96325.03;4998811;28;20523;-27
2024/01/05 09:07:08;;;;;;;4.80;2.40;;;;;;;20.11;51.35;96322.47;4996279;28;20233;-29
2024/01/05 09:09:35;;;;;;;3.93;2.73;;;;;;;20.10;51.55;96316.50;5003526;28;20300;-27
2024/01/05 09:12:02;;;;;;;3.73;2.90;;;;;;;20.10;51.62;96316.50;5008017;28;20227;-26
2024/01/05 09:14:29;;;;;;;2.40;2.20;;;;;;;20.08;51.77;96299.47;5002862;28;20195;-26
2024/01/05 09:16:56;;;;;;;2.50;2.30;;;;;;;20.10;52.00;96305.47;5007819;28;21163;-27
2024/01/05 09:19:22;;;;;;;2.80;2.40;;;;;;;20.11;51.84;96307.19;4998879;28;20206;-29
2024/01/05 09:21:51;;;;;;;3.13;2.33;;;;;;;20.10;52.07;96323.31;5000309;28;20278;-26
2024/01/05 09:24:18;;;;;;;4.30;2.67;;;;;;;20.07;51.96;96324.13;4997681;28;20230;-26
2024/01/05 09:26:46;;;;;;;3.77;2.63;;;;;;;20.05;52.13;96313.06;4999964;28;20203;-27
2024/01/05 09:29:13;;;;;;;2.97;2.37;;;;;;;20.04;52.23;96316.41;4999236;28;20206;-28
2024/01/05 09:31:45;;;;;;;2.57;2.37;;;;;;;20.04;52.28;96311.31;5001381;28;20689;-26
2024/01/05 09:34:12;;;;;;;2.97;2.20;;;;;;;20.04;52.41;96318.13;5005689;28;20203;-26
2024/01/05 09:36:41;;;;;;;2.97;2.10;;;;;;;20.04;52.72;96321.50;5004433;28;20260;-29
2024/01/05 09:39:09;;;;;;;2.47;2.27;;;;;;;20.02;52.85;96323.22;4999959;28;20203;-26
2024/01/05 09:41:35;;;;;;;3.73;2.03;;;;;;;20.03;52.60;96324.91;5005498;28;20273;-26
2024/01/05 09:44:04;;;;;;;2.47;2.13;;;;;;;20.02;53.02;96324.88;4999314;28;20297;-26
2024/01/05 09:46:31;;;;;;;2.63;2.30;;;;;;;20.02;52.95;96320.66;4982313;28;20202;-28
2024/01/05 09:49:03;;;;;;;2.97;2.20;;;;;;;20.03;52.92;96322.34;5005214;28;20290;-27
2024/01/05 09:51:30;;;;;;;3.10;2.17;;;;;;;20.02;52.95;96310.44;5006350;28;20721;-27
2024/01/05 09:53:57;;;;;;;2.60;2.40;;;;;;;20.01;52.57;96306.16;4998701;28;20207;-26
2024/01/05 09:56:25;;;;;;;2.50;2.10;;;;;;;20.02;53.14;96318.09;4996718;28;20199;-31
2024/01/05 09:58:52;;;;;;;2.67;2.40;;;;;;;20.02;53.20;96318.09;5004604;28;20620;-29
2024/01/05 10:01:25;;;;;;;2.50;2.17;;;;;;;20.02;53.02;96315.56;5005806;28;20218;-26
2024/01/05 10:03:56;;;;;;;2.50;2.30;;;;;;;20.02;53.23;96316.41;5002418;28;20585;-35
2024/01/05 10:06:23;;;;;;;2.53;2.23;;;;;;;20.02;52.58;96311.28;4998320;28;20209;-29
2024/01/05 10:08:54;;;;;;;2.77;2.20;;;;;;;19.99;53.20;96292.56;5005079;28;20205;-27
2024/01/05 10:11:33;;;;;;;2.40;2.20;;;;;;;20.02;53.13;96297.72;5004349;28;20258;-28
2024/01/05 10:14:04;;;;;;;2.67;2.27;;;;;;;20.02;53.25;96297.72;5010258;28;20202;-26
2024/01/05 10:16:36;;;;;;;2.50;2.20;;;;;;;20.02;53.43;96299.38;5001568;28;20667;-26
2024/01/05 10:19:13;;;;;;;2.40;2.20;;;;;;;20.02;53.44;96291.72;4998673;28;20684;-26
2024/01/05 10:21:42;;;;;;;2.63;2.10;;;;;;;20.00;53.44;96289.16;5001415;28;20218;-28
2024/01/05 10:24:29;;;;;;;2.20;2.00;;;;;;;20.02;53.29;96293.44;4998077;28;20202;-27
2024/01/05 10:27:07;;;;;;;2.20;2.00;;;;;;;20.02;53.45;96281.53;5000154;28;20214;-26
2024/01/05 10:29:38;;;;;;;3.43;1.90;;;;;;;20.01;53.37;96280.66;4998808;28;20194;-27
2024/01/05 10:32:15;;;;;;;2.20;2.00;;;;;;;20.01;53.45;96282.38;5002295;28;20284;-26
2024/01/05 10:34:46;;;;;;;2.80;2.33;;;;;;;20.01;53.51;96274.72;4999821;28;20209;-29
2024/01/05 10:37:14;;;;;;;2.40;2.07;;;;;;;20.00;53.42;96276.41;4997036;28;20261;-27
2024/01/05 10:40:03;;;;;;;2.60;2.40;;;;;;;19.99;53.42;96278.09;4997477;28;20693;-26
2024/01/05 10:42:30;;;;;;;2.10;1.90;;;;;;;19.99;53.52;96272.16;5002091;28;20241;-28
2024/01/05 10:44:57;;;;;;;3.37;2.47;;;;;;;19.99;53.48;96270.44;5001793;28;20241;-27
2024/01/05 10:47:29;;;;;;;1.83;1.73;;;;;;;19.99;53.48;96273.00;5012374;28;20203;-28
2024/01/05 10:49:56;;;;;;;2.20;2.00;;;;;;;19.99;53.30;96273.00;5000579;28;20289;-26
2024/01/05 10:52:27;;;;;;;2.33;2.13;;;;;;;19.99;53.54;96267.91;5001172;28;20273;-29
2024/01/05 10:54:54;;;;;;;2.40;2.20;;;;;;;19.98;53.73;96268.75;4993615;28;20277;-31
2024/01/05 10:57:20;;;;;;;2.20;2.00;;;;;;;19.98;53.64;96260.22;5001504;28;20301;-26
2024/01/05 10:59:48;;;;;;;2.30;2.07;;;;;;;19.89;53.74;96244.78;4997633;28;20198;-26
2024/01/05 11:02:21;;;;;;;2.27;2.07;;;;;;;19.98;53.79;96263.63;5001795;28;20276;-30
2024/01/05 11:04:56;;;;;;;2.57;2.13;;;;;;;19.98;53.56;96255.13;5000617;28;20261;-30
2024/01/05 11:07:23;;;;;;;2.50;2.27;;;;;;;19.98;53.74;96266.19;5001078;28;20198;-26
2024/01/05 11:10:02;;;;;;;2.20;2.00;;;;;;;19.98;53.65;96261.09;5007195;28;20198;-26
2024/01/05 11:12:28;;;;;;;2.47;2.10;;;;;;;19.99;53.66;96267.06;5012219;28;20252;-26
2024/01/05 11:15:17;;;;;;;2.03;1.83;;;;;;;19.98;53.59;96268.75;5009751;28;20638;-27
2024/01/05 11:17:48;;;;;;;2.43;2.07;;;;;;;19.98;53.63;96263.63;5002167;28;20570;-26
2024/01/05 11:20:39;;;;;;;2.10;1.90;;;;;;;19.99;53.83;96275.53;5008019;28;20228;-29
2024/01/05 11:23:08;;;;;;;2.13;1.93;;;;;;;19.98;53.66;96270.41;5004552;28;20268;-26
2024/01/05 11:25:34;;;;;;;1.90;1.80;;;;;;;19.98;54.16;96272.97;5005608;28;20249;-26
2024/01/05 11:28:02;;;;;;;2.30;2.10;;;;;;;19.99;53.41;96267.06;5005696;28;20195;-28
2024/01/05 11:30:41;;;;;;;2.10;1.90;;;;;;;19.99;53.75;96264.50;5007658;28;20225;-26
2024/01/05 11:33:08;;;;;;;1.90;1.70;;;;;;;19.98;53.82;96262.78;5004361;28;20230;-27
2024/01/05 11:35:38;;;;;;;2.10;1.90;;;;;;;19.99;53.80;96261.97;5005080;28;20298;-26